Time;durP1;ratioP1;P1;durP2;ratioP2;P2;SDS_P1;SDS_P2;PMS_P1;PMS_P2;Temp;Humidity;BMP_temperature;BMP_pressure;BME280_temperature;BME280_humidity;BME280_pressure;Samples;Min_cycle;Max_cycle;Signal;HPM_P1;HPM_P2
2023/09/29 00:00:46;;;;;;;5.17;4.10;;;18.20;34.40;;;;;;10262969;28;20232;-72
2023/09/29 00:05:50;;;;;;;5.20;4.70;;;18.10;34.80;;;;;;10267711;28;20232;-72
2023/09/29 00:10:53;;;;;;;5.50;5.00;;;18.00;34.70;;;;;;10267386;28;20319;-72
2023/09/29 00:15:57;;;;;;;5.27;4.73;;;17.90;34.70;;;;;;10266594;28;20223;-72
2023/09/29 00:21:01;;;;;;;4.40;4.00;;;17.70;34.50;;;;;;10261686;28;20278;-72
2023/09/29 00:26:05;;;;;;;4.90;4.40;;;17.60;34.40;;;;;;10266807;28;20234;-73
2023/09/29 00:31:09;;;;;;;4.53;4.13;;;17.50;34.30;;;;;;10264743;28;20234;-72
2023/09/29 00:36:12;;;;;;;3.87;3.57;;;17.40;34.60;;;;;;10264355;28;20983;-72
2023/09/29 00:41:20;;;;;;;4.47;4.07;;;17.30;34.20;;;;;;10258600;28;20611;-72
2023/09/29 00:46:25;;;;;;;3.70;3.40;;;17.30;34.50;;;;;;10264654;28;20308;-73
2023/09/29 00:51:29;;;;;;;4.20;3.80;;;17.20;35.10;;;;;;10262979;28;20262;-73
2023/09/29 00:56:32;;;;;;;3.83;3.53;;;17.20;34.80;;;;;;10262823;28;20319;-73
2023/09/29 01:01:36;;;;;;;3.53;3.27;;;17.10;34.70;;;;;;10263805;28;20695;-73
2023/09/29 01:06:40;;;;;;;3.67;3.37;;;17.00;35.10;;;;;;10265655;28;20610;-73
2023/09/29 01:11:43;;;;;;;4.00;3.70;;;17.00;34.90;;;;;;10262048;28;20251;-72
2023/09/29 01:16:48;;;;;;;5.43;3.30;;;16.80;35.10;;;;;;10265174;28;20327;-72
2023/09/29 01:21:52;;;;;;;5.20;3.77;;;16.70;35.50;;;;;;10262638;28;20234;-72
2023/09/29 01:26:59;;;;;;;4.70;3.70;;;16.70;35.30;;;;;;10260692;28;20238;-72
2023/09/29 01:32:03;;;;;;;5.10;3.43;;;16.70;35.80;;;;;;10260670;28;20248;-73
2023/09/29 01:37:07;;;;;;;3.37;3.00;;;16.60;35.30;;;;;;10263458;28;20323;-73
2023/09/29 01:42:12;;;;;;;3.57;2.97;;;16.60;35.40;;;;;;10267902;28;20236;-72
2023/09/29 01:47:17;;;;;;;3.80;3.50;;;16.60;35.60;;;;;;10264352;28;20718;-73
2023/09/29 01:52:22;;;;;;;3.60;3.30;;;16.60;35.40;;;;;;10262379;28;20230;-73
2023/09/29 01:57:26;;;;;;;4.00;3.60;;;16.70;35.50;;;;;;10265854;28;20335;-72
2023/09/29 02:02:30;;;;;;;4.13;3.73;;;16.60;35.60;;;;;;10262057;28;20235;-72
2023/09/29 02:07:33;;;;;;;3.23;2.93;;;16.60;35.40;;;;;;10260348;28;20227;-73
2023/09/29 02:12:42;;;;;;;3.90;3.53;;;16.50;35.30;;;;;;10260339;28;20246;-72
2023/09/29 02:17:48;;;;;;;4.17;3.60;;;16.50;35.80;;;;;;10256233;28;20237;-72
2023/09/29 02:22:54;;;;;;;4.13;3.40;;;16.50;35.40;;;;;;10255027;28;20919;-72
2023/09/29 02:28:00;;;;;;;5.57;3.50;;;16.40;35.40;;;;;;10255438;28;20322;-72
2023/09/29 02:33:04;;;;;;;3.33;3.03;;;16.30;35.70;;;;;;10261222;28;20248;-73
2023/09/29 02:38:07;;;;;;;3.93;3.63;;;16.30;35.60;;;;;;10260805;28;20247;-72
2023/09/29 02:43:12;;;;;;;4.70;3.97;;;16.30;35.60;;;;;;10262755;28;20274;-72
2023/09/29 02:48:15;;;;;;;4.20;3.60;;;16.30;36.00;;;;;;10263491;28;20234;-73
2023/09/29 02:53:18;;;;;;;3.90;3.60;;;16.20;35.70;;;;;;10261696;28;20224;-72
2023/09/29 02:58:23;;;;;;;4.03;3.67;;;16.00;35.80;;;;;;10264084;28;20239;-73
2023/09/29 03:03:27;;;;;;;3.73;3.43;;;16.00;36.30;;;;;;10261874;28;20250;-72
2023/09/29 03:08:32;;;;;;;3.23;2.87;;;16.00;36.10;;;;;;10263597;28;20726;-72
2023/09/29 03:13:38;;;;;;;3.53;3.23;;;16.00;36.10;;;;;;10266080;28;20235;-72
2023/09/29 03:18:42;;;;;;;3.50;3.30;;;16.00;36.30;;;;;;10267881;28;20228;-73
2023/09/29 03:23:45;;;;;;;3.83;3.00;;;15.90;36.20;;;;;;10263420;28;20239;-72
2023/09/29 03:28:50;;;;;;;3.60;3.30;;;15.90;36.00;;;;;;10267457;28;20239;-72
2023/09/29 03:33:53;;;;;;;3.83;3.47;;;15.90;36.20;;;;;;10256915;28;20231;-72
2023/09/29 03:38:59;;;;;;;3.93;3.63;;;15.90;35.90;;;;;;10263760;28;20228;-73
2023/09/29 03:44:04;;;;;;;4.47;3.87;;;15.90;36.00;;;;;;10273522;28;20243;-75
2023/09/29 03:49:08;;;;;;;3.30;2.93;;;15.80;36.20;;;;;;10264813;28;20264;-75
2023/09/29 03:54:13;;;;;;;4.17;3.63;;;15.80;35.90;;;;;;10268252;28;20326;-76
2023/09/29 03:59:18;;;;;;;3.73;3.30;;;15.70;36.10;;;;;;10277432;28;20244;-75
2023/09/29 04:04:21;;;;;;;3.47;3.17;;;15.60;36.50;;;;;;10278259;28;20250;-72
2023/09/29 04:09:25;;;;;;;4.97;3.70;;;15.60;36.30;;;;;;10273102;28;20231;-72
2023/09/29 04:14:30;;;;;;;4.10;3.70;;;15.60;36.20;;;;;;10271855;28;20779;-72
2023/09/29 04:19:38;;;;;;;4.03;3.70;;;15.60;36.40;;;;;;10269665;28;20240;-72
2023/09/29 04:24:42;;;;;;;3.87;3.57;;;15.50;36.10;;;;;;10270277;28;20366;-72
2023/09/29 04:29:47;;;;;;;3.67;3.37;;;15.50;36.20;;;;;;10262691;28;20335;-72
2023/09/29 04:34:50;;;;;;;4.20;3.90;;;15.50;36.60;;;;;;10267320;28;20236;-72
2023/09/29 04:39:55;;;;;;;3.70;3.40;;;15.40;36.40;;;;;;10272718;28;20705;-72
2023/09/29 04:45:00;;;;;;;3.97;3.63;;;15.40;36.40;;;;;;10278922;28;20244;-72
2023/09/29 04:50:05;;;;;;;3.60;3.30;;;15.40;36.60;;;;;;10274207;28;20265;-72
2023/09/29 04:55:09;;;;;;;3.83;3.50;;;15.30;36.40;;;;;;10262256;28;20668;-72
2023/09/29 05:00:15;;;;;;;3.87;3.57;;;15.20;36.30;;;;;;10260000;28;20904;-72
2023/09/29 05:05:18;;;;;;;4.80;3.60;;;15.10;36.40;;;;;;10270238;28;20306;-72
2023/09/29 05:10:21;;;;;;;4.57;4.17;;;15.00;36.30;;;;;;10264211;28;20234;-72
2023/09/29 05:15:26;;;;;;;4.00;3.60;;;14.90;36.60;;;;;;10266153;28;20236;-72
2023/09/29 05:20:29;;;;;;;4.40;3.90;;;14.80;36.80;;;;;;10264950;28;20758;-71
2023/09/29 05:25:32;;;;;;;4.50;4.10;;;14.70;37.90;;;;;;10261300;28;20231;-73
2023/09/29 05:30:37;;;;;;;4.50;4.10;;;14.70;37.40;;;;;;10260629;28;20234;-72
2023/09/29 05:35:40;;;;;;;4.27;3.90;;;14.70;37.60;;;;;;10265072;28;20224;-72
2023/09/29 05:40:44;;;;;;;5.87;5.00;;;14.70;37.20;;;;;;10268290;28;20235;-72
2023/09/29 05:45:49;;;;;;;6.00;5.40;;;14.70;37.40;;;;;;10264246;28;20813;-71
2023/09/29 05:50:52;;;;;;;4.83;4.43;;;14.60;37.80;;;;;;10255041;28;20303;-71
2023/09/29 05:55:55;;;;;;;4.70;4.23;;;14.40;37.70;;;;;;10256110;28;20235;-71
2023/09/29 06:01:08;;;;;;;5.83;5.07;;;14.30;38.00;;;;;;10270794;28;20227;-71
2023/09/29 06:06:11;;;;;;;4.57;4.17;;;14.30;39.70;;;;;;10260200;28;20326;-71
2023/09/29 06:11:15;;;;;;;5.03;4.50;;;14.30;38.40;;;;;;10265468;28;20931;-71
2023/09/29 06:16:19;;;;;;;4.73;4.27;;;14.30;38.80;;;;;;10261461;28;20251;-71
2023/09/29 06:21:23;;;;;;;4.80;4.40;;;14.30;39.40;;;;;;10269508;28;20224;-71
2023/09/29 06:26:26;;;;;;;4.87;4.47;;;14.30;39.30;;;;;;10259476;28;20236;-71
2023/09/29 06:31:31;;;;;;;5.63;5.13;;;14.40;39.60;;;;;;10262344;28;20234;-70
2023/09/29 06:36:34;;;;;;;6.43;5.83;;;14.50;40.20;;;;;;10273794;28;20227;-71
2023/09/29 06:41:37;;;;;;;6.23;5.60;;;14.60;40.00;;;;;;10271634;28;20698;-71
2023/09/29 06:46:41;;;;;;;5.50;5.00;;;14.80;40.50;;;;;;10265249;28;20286;-71
2023/09/29 06:51:45;;;;;;;7.80;5.20;;;14.90;41.60;;;;;;10270832;28;20235;-71
2023/09/29 06:56:48;;;;;;;6.00;5.40;;;15.10;41.00;;;;;;10269366;28;20235;-71
2023/09/29 07:01:54;;;;;;;6.67;5.10;;;15.20;41.30;;;;;;10264451;28;20228;-71
2023/09/29 07:06:58;;;;;;;5.47;4.97;;;15.30;42.40;;;;;;10264726;28;20227;-70
2023/09/29 07:12:01;;;;;;;5.87;5.27;;;15.50;41.70;;;;;;10260185;28;20223;-71
2023/09/29 07:17:06;;;;;;;5.77;5.20;;;15.60;42.10;;;;;;10268613;28;20232;-71
2023/09/29 07:22:09;;;;;;;5.77;5.27;;;15.80;43.20;;;;;;10261115;28;20223;-71
2023/09/29 07:27:13;;;;;;;6.13;5.30;;;16.00;42.70;;;;;;10265827;28;20235;-71
2023/09/29 07:32:17;;;;;;;5.37;4.87;;;16.30;43.10;;;;;;10267979;28;20378;-70
2023/09/29 07:37:20;;;;;;;5.80;5.30;;;16.50;43.70;;;;;;10252682;28;20231;-70
2023/09/29 07:42:23;;;;;;;5.70;5.20;;;16.80;43.20;;;;;;10264658;28;20315;-70
2023/09/29 07:47:28;;;;;;;7.03;5.10;;;17.10;43.30;;;;;;10259898;28;20314;-70
2023/09/29 07:52:31;;;;;;;5.20;4.80;;;17.40;44.10;;;;;;10266789;28;20242;-70
2023/09/29 07:57:34;;;;;;;5.33;4.83;;;17.70;43.30;;;;;;10268224;28;20255;-71
2023/09/29 08:02:39;;;;;;;6.47;5.00;;;18.00;43.30;;;;;;10265569;28;20228;-70
2023/09/29 08:07:43;;;;;;;5.50;5.00;;;18.30;43.50;;;;;;10269147;28;20257;-71
2023/09/29 08:12:46;;;;;;;5.13;4.70;;;18.60;43.10;;;;;;10270477;28;20647;-71
2023/09/29 08:17:50;;;;;;;5.80;5.17;;;18.90;42.90;;;;;;10267350;28;20236;-71
2023/09/29 08:22:54;;;;;;;4.90;4.50;;;19.20;43.10;;;;;;10268652;28;20231;-71
2023/09/29 08:28:02;;;;;;;5.40;4.90;;;19.50;42.40;;;;;;10275034;28;20229;-71
2023/09/29 08:33:07;;;;;;;4.93;4.53;;;19.80;42.50;;;;;;10261869;28;20303;-72
2023/09/29 08:38:27;;;;;;;5.67;4.93;;;20.10;43.20;;;;;;10262154;28;20231;-71
2023/09/29 08:43:31;;;;;;;5.63;5.00;;;20.50;42.40;;;;;;10269887;28;20235;-71
2023/09/29 08:48:37;;;;;;;5.43;4.93;;;20.80;42.20;;;;;;10264000;28;20234;-70
2023/09/29 08:53:42;;;;;;;6.33;4.93;;;21.10;42.10;;;;;;10272175;28;20302;-70
2023/09/29 08:58:46;;;;;;;5.40;4.57;;;21.30;41.30;;;;;;10272113;28;20247;-70
2023/09/29 09:03:51;;;;;;;5.90;4.60;;;21.50;41.30;;;;;;10261234;28;20760;-70
2023/09/29 09:08:56;;;;;;;4.97;4.50;;;21.80;40.80;;;;;;10270424;28;20310;-70
2023/09/29 09:14:03;;;;;;;6.20;4.57;;;22.10;40.90;;;;;;10262236;28;20580;-70
2023/09/29 09:19:12;;;;;;;4.83;4.43;;;22.40;40.60;;;;;;10266499;28;20790;-71
2023/09/29 09:24:19;;;;;;;5.23;4.70;;;22.60;39.70;;;;;;10262316;28;20251;-70
2023/09/29 09:29:23;;;;;;;5.30;4.80;;;22.90;39.60;;;;;;10259990;28;20717;-70
2023/09/29 09:34:34;;;;;;;5.40;4.13;;;23.10;39.30;;;;;;10269510;28;20234;-71
2023/09/29 09:39:38;;;;;;;4.77;4.37;;;23.30;39.40;;;;;;10267789;28;20305;-70
2023/09/29 09:44:42;;;;;;;4.80;4.40;;;23.50;39.60;;;;;;10264071;28;20316;-71
2023/09/29 09:49:48;;;;;;;4.67;4.27;;;23.70;39.30;;;;;;10268968;28;20236;-70
2023/09/29 09:54:54;;;;;;;4.60;4.20;;;23.90;38.10;;;;;;10266541;28;20233;-70
2023/09/29 10:00:06;;;;;;;4.90;4.20;;;24.10;38.20;;;;;;10268703;28;20970;-70
2023/09/29 10:05:17;;;;;;;4.63;4.10;;;24.30;37.60;;;;;;10274574;28;20226;-70
2023/09/29 10:10:31;;;;;;;4.37;3.97;;;24.50;37.60;;;;;;10264832;28;20224;-70
2023/09/29 10:15:35;;;;;;;5.00;4.20;;;24.70;37.30;;;;;;10266301;28;20745;-70
2023/09/29 10:20:40;;;;;;;5.33;4.10;;;24.90;37.50;;;;;;10266205;28;20232;-70
2023/09/29 10:25:45;;;;;;;4.57;4.07;;;25.00;36.80;;;;;;10267583;28;20314;-73
2023/09/29 10:30:49;;;;;;;4.37;3.80;;;25.20;36.80;;;;;;10254446;28;20729;-72
2023/09/29 10:35:54;;;;;;;4.30;3.90;;;25.40;36.90;;;;;;10262291;28;20243;-72
2023/09/29 10:40:58;;;;;;;4.63;4.23;;;25.60;36.30;;;;;;10259628;28;20601;-73
2023/09/29 10:46:07;;;;;;;4.17;3.80;;;25.70;36.00;;;;;;10262398;28;20259;-73
2023/09/29 10:51:20;;;;;;;3.77;3.37;;;25.90;35.30;;;;;;10259872;28;20224;-73
2023/09/29 10:56:25;;;;;;;4.20;3.80;;;26.10;35.30;;;;;;10258251;28;20239;-73
2023/09/29 11:01:32;;;;;;;3.80;3.50;;;26.20;34.70;;;;;;10263260;28;20237;-72
2023/09/29 11:06:45;;;;;;;4.23;3.90;;;26.40;34.90;;;;;;10260485;28;20231;-72
2023/09/29 11:11:49;;;;;;;4.83;4.20;;;26.50;33.00;;;;;;10260478;28;20274;-73
2023/09/29 11:16:56;;;;;;;4.20;3.57;;;26.60;33.90;;;;;;10260312;28;20235;-71
2023/09/29 11:22:04;;;;;;;4.03;3.67;;;26.80;32.80;;;;;;10253908;28;20598;-71
2023/09/29 11:27:08;;;;;;;3.40;3.20;;;26.80;33.20;;;;;;10255857;28;20749;-71
2023/09/29 11:32:11;;;;;;;5.20;3.63;;;27.00;34.00;;;;;;10266004;28;20806;-71
2023/09/29 11:37:18;;;;;;;3.47;3.27;;;27.10;33.00;;;;;;10260583;28;20236;-71
2023/09/29 11:42:23;;;;;;;4.00;3.33;;;27.20;32.20;;;;;;10263777;28;20235;-71
2023/09/29 11:47:26;;;;;;;4.07;3.53;;;27.40;32.20;;;;;;10257714;28;21058;-71
2023/09/29 11:52:32;;;;;;;3.53;3.23;;;27.50;32.10;;;;;;10264158;28;20240;-71
2023/09/29 11:57:37;;;;;;;5.37;3.37;;;27.60;31.00;;;;;;10264310;28;20227;-71
2023/09/29 12:02:41;;;;;;;5.43;3.20;;;27.70;30.90;;;;;;10263025;28;20752;-71
2023/09/29 12:07:46;;;;;;;4.40;3.07;;;27.80;30.80;;;;;;10277355;28;20239;-70
2023/09/29 12:12:49;;;;;;;3.60;3.20;;;27.90;30.10;;;;;;10269204;28;20235;-71
2023/09/29 12:17:53;;;;;;;4.33;3.20;;;28.00;30.20;;;;;;10269268;28;20314;-71
2023/09/29 12:23:01;;;;;;;4.37;3.20;;;28.00;30.20;;;;;;10273999;28;20231;-71
2023/09/29 12:28:05;;;;;;;3.83;2.80;;;28.10;29.30;;;;;;10263421;28;20239;-71
2023/09/29 12:33:10;;;;;;;3.40;3.10;;;28.20;29.90;;;;;;10268326;28;20318;-71
2023/09/29 12:38:15;;;;;;;3.20;2.90;;;28.30;29.60;;;;;;10269991;28;20243;-71
2023/09/29 12:43:18;;;;;;;3.00;2.70;;;28.30;29.40;;;;;;10267002;28;20223;-71
2023/09/29 12:48:21;;;;;;;3.23;2.93;;;28.40;28.50;;;;;;10269965;28;20240;-71
2023/09/29 12:53:26;;;;;;;3.10;2.80;;;28.40;28.50;;;;;;10269595;28;20239;-70
2023/09/29 12:58:30;;;;;;;3.37;3.00;;;28.40;27.90;;;;;;10271956;28;20240;-71
2023/09/29 13:03:33;;;;;;;3.30;3.00;;;28.40;28.10;;;;;;10273152;28;20238;-70
2023/09/29 13:08:38;;;;;;;3.43;2.70;;;28.40;28.40;;;;;;10266265;28;20761;-71
2023/09/29 13:13:41;;;;;;;3.10;2.67;;;28.40;27.80;;;;;;10270606;28;20335;-70
2023/09/29 13:18:45;;;;;;;2.90;2.70;;;28.40;28.10;;;;;;10269680;28;20736;-71
2023/09/29 13:23:50;;;;;;;3.17;2.97;;;28.50;28.30;;;;;;10268646;28;20224;-71
2023/09/29 13:28:53;;;;;;;2.87;2.57;;;28.50;27.60;;;;;;10269956;28;21003;-71
2023/09/29 13:33:56;;;;;;;2.90;2.53;;;28.50;27.90;;;;;;10263865;28;20255;-69
2023/09/29 13:39:01;;;;;;;3.57;2.60;;;28.60;27.80;;;;;;10264861;28;20282;-71
2023/09/29 13:44:05;;;;;;;2.90;2.60;;;28.70;27.40;;;;;;10270669;28;20687;-71
2023/09/29 13:49:08;;;;;;;3.33;2.83;;;28.70;27.70;;;;;;10261359;28;20259;-71
2023/09/29 13:54:13;;;;;;;2.83;2.63;;;28.80;27.70;;;;;;10273366;28;20223;-71
2023/09/29 13:59:16;;;;;;;3.07;2.60;;;28.90;27.10;;;;;;10266153;28;20243;-71
2023/09/29 14:04:19;;;;;;;2.87;2.50;;;28.90;27.30;;;;;;10264166;28;20230;-71
2023/09/29 14:09:24;;;;;;;3.00;2.70;;;29.00;26.90;;;;;;10267162;28;20839;-71
2023/09/29 14:14:27;;;;;;;2.40;2.30;;;29.00;26.50;;;;;;10264848;28;20282;-71
2023/09/29 14:19:30;;;;;;;2.60;2.40;;;29.00;26.70;;;;;;10262150;28;20318;-71
2023/09/29 14:24:35;;;;;;;2.80;2.60;;;29.00;26.90;;;;;;10263030;28;20238;-71
2023/09/29 14:29:38;;;;;;;2.80;2.60;;;29.00;26.00;;;;;;10263804;28;20228;-71
2023/09/29 14:34:41;;;;;;;3.23;2.50;;;29.00;27.10;;;;;;10272613;28;20238;-70
2023/09/29 14:39:46;;;;;;;3.50;2.50;;;29.00;26.20;;;;;;10272462;28;20747;-71
2023/09/29 14:44:49;;;;;;;2.50;2.27;;;29.00;25.80;;;;;;10254046;28;20319;-72
2023/09/29 14:49:54;;;;;;;2.70;2.50;;;29.10;26.20;;;;;;10264883;28;20246;-72
2023/09/29 14:55:03;;;;;;;2.50;2.30;;;29.10;26.10;;;;;;10272436;28;20829;-72
2023/09/29 15:00:10;;;;;;;2.87;2.60;;;29.10;25.90;;;;;;10259497;28;20235;-72
2023/09/29 15:05:13;;;;;;;3.20;2.90;;;29.10;25.80;;;;;;10275183;28;20258;-72
2023/09/29 15:10:18;;;;;;;3.63;2.47;;;29.10;26.20;;;;;;10279986;28;20661;-72
2023/09/29 15:15:21;;;;;;;2.70;2.50;;;29.00;25.80;;;;;;10276438;28;20234;-72
2023/09/29 15:20:25;;;;;;;3.83;2.73;;;29.00;26.30;;;;;;10271039;28;20231;-71
2023/09/29 15:25:29;;;;;;;4.50;2.60;;;28.90;26.30;;;;;;10273442;28;20252;-72
2023/09/29 15:30:33;;;;;;;2.97;2.60;;;28.90;26.10;;;;;;10269509;28;20740;-74
2023/09/29 15:35:36;;;;;;;2.93;2.63;;;28.80;26.40;;;;;;10274998;28;20239;-72
2023/09/29 15:40:41;;;;;;;2.70;2.50;;;28.80;26.60;;;;;;10268184;28;20311;-72
2023/09/29 15:45:44;;;;;;;2.90;2.60;;;28.70;26.60;;;;;;10269800;28;20242;-76
2023/09/29 15:50:48;;;;;;;3.13;2.83;;;28.70;26.80;;;;;;10249875;28;20243;-75
2023/09/29 15:55:53;;;;;;;3.97;2.70;;;28.70;26.80;;;;;;10255186;28;20231;-76
2023/09/29 16:00:57;;;;;;;6.93;2.70;;;28.70;26.90;;;;;;10256646;28;20319;-76
2023/09/29 16:06:02;;;;;;;3.27;2.50;;;28.60;27.30;;;;;;10255567;28;20327;-76
2023/09/29 16:11:07;;;;;;;4.20;2.53;;;28.60;27.60;;;;;;10264008;28;20289;-77
2023/09/29 16:16:10;;;;;;;3.47;2.73;;;28.60;27.90;;;;;;10257573;28;20701;-77
2023/09/29 16:21:18;;;;;;;4.73;2.57;;;28.60;27.70;;;;;;10264693;28;20236;-76
2023/09/29 16:26:23;;;;;;;4.47;2.67;;;28.60;28.00;;;;;;10255857;28;20266;-77
2023/09/29 16:31:28;;;;;;;3.10;2.70;;;28.60;28.10;;;;;;10260951;28;20757;-77
2023/09/29 16:36:32;;;;;;;2.70;2.50;;;28.60;28.10;;;;;;10263861;28;20234;-77
2023/09/29 16:41:37;;;;;;;3.50;2.60;;;28.50;28.30;;;;;;10257221;28;20730;-77
2023/09/29 16:46:40;;;;;;;3.00;2.67;;;28.50;28.60;;;;;;10260224;28;20228;-77
2023/09/29 16:51:43;;;;;;;3.87;3.10;;;28.40;28.50;;;;;;10258993;28;20322;-77
2023/09/29 16:56:48;;;;;;;3.00;2.70;;;28.30;28.60;;;;;;10260308;28;20236;-77
2023/09/29 17:01:52;;;;;;;3.10;2.80;;;28.20;28.80;;;;;;10258666;28;20703;-78
2023/09/29 17:06:55;;;;;;;3.57;2.90;;;28.10;28.80;;;;;;10264945;28;20242;-77
2023/09/29 17:12:00;;;;;;;3.27;2.73;;;27.90;28.80;;;;;;10257694;28;20314;-77
2023/09/29 17:17:05;;;;;;;3.10;2.80;;;27.70;29.10;;;;;;10256647;28;20216;-76
2023/09/29 17:22:09;;;;;;;2.87;2.67;;;27.60;29.00;;;;;;10257452;28;20234;-77
2023/09/29 17:27:14;;;;;;;4.20;3.23;;;27.40;29.10;;;;;;10256817;28;20227;-77
2023/09/29 17:32:18;;;;;;;4.83;4.30;;;27.20;29.40;;;;;;10258216;28;20219;-77
2023/09/29 17:37:21;;;;;;;4.50;3.87;;;27.10;29.40;;;;;;10255516;28;20236;-73
2023/09/29 17:42:25;;;;;;;3.93;3.63;;;26.90;29.60;;;;;;10259667;28;20358;-73
2023/09/29 17:47:37;;;;;;;5.80;4.23;;;26.60;29.50;;;;;;10462186;27;20579;-71
2023/09/29 17:52:40;;;;;;;4.50;4.10;;;26.30;29.40;;;;;;10463392;28;20757;-71
2023/09/29 17:57:44;;;;;;;3.87;3.57;;;25.90;29.80;;;;;;10458787;28;20253;-71
2023/09/29 18:02:48;;;;;;;3.87;3.30;;;25.60;30.30;;;;;;10476931;28;20327;-72
2023/09/29 18:07:52;;;;;;;2.97;2.77;;;25.40;30.90;;;;;;10467281;28;20237;-71
2023/09/29 18:12:55;;;;;;;5.03;3.60;;;25.20;30.90;;;;;;10419675;28;20702;-71
2023/09/29 18:17:59;;;;;;;4.10;3.23;;;25.10;31.50;;;;;;10424455;28;20252;-71
2023/09/29 18:23:03;;;;;;;4.23;3.50;;;25.00;31.90;;;;;;10435967;28;20220;-71
2023/09/29 18:28:07;;;;;;;4.50;4.10;;;25.00;31.80;;;;;;10451476;28;20229;-72
2023/09/29 18:33:11;;;;;;;4.20;3.80;;;25.00;32.00;;;;;;10443649;28;20308;-73
2023/09/29 18:38:15;;;;;;;3.30;2.93;;;25.00;32.00;;;;;;10444679;28;20311;-73
2023/09/29 18:43:18;;;;;;;4.97;2.80;;;24.90;31.60;;;;;;10432234;28;20244;-73
2023/09/29 18:48:23;;;;;;;3.90;3.60;;;24.90;31.90;;;;;;10445530;28;20388;-72
2023/09/29 18:53:26;;;;;;;3.90;3.40;;;25.00;32.30;;;;;;10447302;28;20232;-73
2023/09/29 18:58:30;;;;;;;3.50;3.20;;;25.20;32.30;;;;;;10414594;28;20348;-72
2023/09/29 19:03:34;;;;;;;3.87;3.50;;;25.20;32.20;;;;;;10418345;28;20248;-72
2023/09/29 19:08:38;;;;;;;5.37;3.20;;;25.30;32.30;;;;;;10410937;28;20243;-73
2023/09/29 19:13:42;;;;;;;5.70;3.70;;;25.30;32.30;;;;;;10412944;28;20244;-72
2023/09/29 19:18:47;;;;;;;6.30;3.80;;;25.30;33.10;;;;;;10408514;28;20713;-72
2023/09/29 19:23:54;;;;;;;7.87;4.60;;;25.20;33.40;;;;;;10397090;28;20233;-72
2023/09/29 19:28:58;;;;;;;8.30;5.00;;;25.10;33.10;;;;;;10424922;28;20229;-72
2023/09/29 19:34:03;;;;;;;7.00;4.70;;;25.00;33.30;;;;;;10426417;28;20225;-71
2023/09/29 19:39:09;;;;;;;5.90;4.97;;;24.90;33.30;;;;;;10423078;28;20242;-71
2023/09/29 19:44:12;;;;;;;10.50;5.30;;;24.80;33.30;;;;;;10416713;28;20217;-71
2023/09/29 19:49:17;;;;;;;8.67;6.20;;;24.70;33.10;;;;;;10425041;28;20732;-71
2023/09/29 19:54:21;;;;;;;9.47;6.70;;;24.70;33.30;;;;;;10402644;28;20328;-71
2023/09/29 19:59:25;;;;;;;10.93;6.80;;;24.60;32.90;;;;;;10409001;28;20337;-72
2023/09/29 20:04:30;;;;;;;14.30;8.93;;;24.60;32.80;;;;;;10407490;28;20234;-71
2023/09/29 20:09:34;;;;;;;14.70;9.30;;;24.60;32.80;;;;;;10385441;28;20238;-72
2023/09/29 20:14:37;;;;;;;13.53;9.30;;;24.50;32.50;;;;;;10401716;28;20229;-72
2023/09/29 20:19:42;;;;;;;15.77;9.27;;;24.50;32.60;;;;;;10425703;28;20229;-72
2023/09/29 20:24:46;;;;;;;12.70;9.00;;;24.40;32.60;;;;;;10419284;28;20229;-72
2023/09/29 20:29:49;;;;;;;14.07;10.37;;;24.40;33.10;;;;;;10417649;28;20220;-72
2023/09/29 20:34:55;;;;;;;11.47;8.50;;;24.30;32.30;;;;;;10417520;28;20239;-72
2023/09/29 20:40:00;;;;;;;14.47;9.53;;;24.30;32.50;;;;;;10400691;28;20233;-71
2023/09/29 20:45:04;;;;;;;14.87;9.40;;;24.30;32.50;;;;;;10426500;28;20894;-72
2023/09/29 20:50:10;;;;;;;16.77;11.10;;;24.20;32.40;;;;;;10411614;28;20231;-72
2023/09/29 20:55:13;;;;;;;16.17;10.60;;;24.20;32.30;;;;;;10409021;28;20221;-71
2023/09/29 21:00:16;;;;;;;17.87;11.47;;;24.10;32.10;;;;;;10418198;28;20324;-71
2023/09/29 21:05:21;;;;;;;18.67;11.07;;;24.10;32.00;;;;;;10426262;28;20236;-71
2023/09/29 21:10:24;;;;;;;18.70;12.03;;;24.00;32.00;;;;;;10398108;28;20296;-72
2023/09/29 21:15:28;;;;;;;18.53;12.37;;;23.90;31.90;;;;;;10392198;28;20304;-72
2023/09/29 21:20:33;;;;;;;19.33;12.20;;;23.90;32.00;;;;;;10400927;28;20320;-71
2023/09/29 21:25:36;;;;;;;20.50;12.67;;;23.80;32.00;;;;;;10400681;28;20233;-71
2023/09/29 21:30:40;;;;;;;22.63;13.77;;;23.70;32.00;;;;;;10393773;28;20237;-71
2023/09/29 21:35:44;;;;;;;21.30;13.17;;;23.60;31.90;;;;;;10406845;28;20643;-71
2023/09/29 21:40:47;;;;;;;20.33;12.73;;;23.60;31.90;;;;;;10415244;28;20255;-72
2023/09/29 21:45:50;;;;;;;19.87;12.73;;;23.50;31.90;;;;;;10430055;28;20748;-71
2023/09/29 21:50:56;;;;;;;19.43;12.67;;;23.40;32.10;;;;;;10430119;28;20229;-71
2023/09/29 21:56:00;;;;;;;17.47;11.97;;;23.30;32.30;;;;;;10411653;28;20243;-71
2023/09/29 22:01:03;;;;;;;18.57;12.17;;;23.30;32.30;;;;;;10429211;28;20229;-71
2023/09/29 22:06:09;;;;;;;18.50;11.63;;;23.30;32.40;;;;;;10393821;28;20268;-71
2023/09/29 22:11:13;;;;;;;20.30;12.83;;;23.20;32.50;;;;;;10398253;28;20309;-72
2023/09/29 22:16:16;;;;;;;17.73;11.73;;;23.20;32.50;;;;;;10398833;28;20217;-72
2023/09/29 22:21:22;;;;;;;18.50;11.23;;;23.20;32.50;;;;;;10385415;28;20898;-72
2023/09/29 22:26:26;;;;;;;16.40;10.47;;;23.10;32.60;;;;;;10399440;28;20890;-71
2023/09/29 22:31:30;;;;;;;16.93;10.67;;;23.10;32.60;;;;;;10416204;28;20332;-72
2023/09/29 22:36:34;;;;;;;18.17;10.67;;;22.90;32.50;;;;;;10433246;28;20252;-72
2023/09/29 22:41:38;;;;;;;16.47;9.90;;;22.80;32.70;;;;;;10425559;28;20226;-72
2023/09/29 22:46:42;;;;;;;16.47;9.87;;;22.70;32.70;;;;;;10415164;28;20229;-71
2023/09/29 22:51:47;;;;;;;16.30;9.83;;;22.60;32.70;;;;;;10418752;28;20233;-71
2023/09/29 22:56:52;;;;;;;18.03;10.03;;;22.60;32.90;;;;;;10393729;28;20313;-71
2023/09/29 23:01:55;;;;;;;15.47;9.13;;;22.50;32.90;;;;;;10406808;28;20244;-72
2023/09/29 23:07:00;;;;;;;14.33;8.60;;;22.30;33.10;;;;;;10389031;28;20228;-71
2023/09/29 23:12:03;;;;;;;15.27;9.17;;;22.10;33.40;;;;;;10427639;28;20309;-71
2023/09/29 23:17:06;;;;;;;15.13;9.20;;;22.00;33.40;;;;;;10425860;28;20283;-71
2023/09/29 23:22:12;;;;;;;15.93;9.13;;;21.90;33.60;;;;;;10385070;28;20233;-71
2023/09/29 23:27:15;;;;;;;13.47;8.70;;;21.80;34.00;;;;;;10385167;28;20313;-71
2023/09/29 23:32:18;;;;;;;14.87;8.80;;;21.80;33.80;;;;;;10393874;28;20253;-71
2023/09/29 23:37:23;;;;;;;14.33;8.23;;;21.80;33.70;;;;;;10393621;28;20246;-71
2023/09/29 23:42:26;;;;;;;13.13;8.07;;;21.80;34.10;;;;;;10386848;28;20230;-73
2023/09/29 23:47:31;;;;;;;12.77;8.13;;;21.80;33.90;;;;;;10392095;28;20238;-71
2023/09/29 23:52:35;;;;;;;13.27;8.20;;;21.80;33.90;;;;;;10397264;28;20722;-72
2023/09/29 23:57:39;;;;;;;12.77;7.93;;;21.70;34.10;;;;;;10391534;28;20228;-71
